Terminal Aerodrome Forecast
Issued by NWS

Home | Current Version | Previous Version | Text Only | Print | Product List | Glossary On
Versions: 1 2 3 4 5 6 7 8 9 10 11 12 13 14
000
FTUS45 KRIW 280118 AAA
TAFJAC
TAF AMD
KJAC 280118Z 2801/2824 27013G21KT P6SM -TSRA SCT070CB BKN100
     FM280215 24008KT P6SM SCT080
     FM280600 36006KT P6SM SCT090
     FM281900 20008KT P6SM VCSH SCT080
      AMD LTD TO CLD VIS AND WIND=

USA.gov is the U.S. government's official web portal to all federal, state and local government web resources and services.